sensor_id;sensor_type;location;lat;lon;timestamp;temperature;humidity
15930;DHT22;8064;51.142;4.780;2022-10-20T00:00:11;13.10;99.90
15930;DHT22;8064;51.142;4.780;2022-10-20T00:02:37;13.10;99.90
15930;DHT22;8064;51.142;4.780;2022-10-20T00:05:03;13.10;99.90
15930;DHT22;8064;51.142;4.780;2022-10-20T00:07:29;13.10;99.90
15930;DHT22;8064;51.142;4.780;2022-10-20T00:09:55;13.10;99.90
15930;DHT22;8064;51.142;4.780;2022-10-20T00:12:21;13.10;99.90
15930;DHT22;8064;51.142;4.780;2022-10-20T00:14:46;13.00;99.90
15930;DHT22;8064;51.142;4.780;2022-10-20T00:17:12;13.00;99.90
15930;DHT22;8064;51.142;4.780;2022-10-20T00:19:38;13.00;99.90
15930;DHT22;8064;51.142;4.780;2022-10-20T00:22:03;13.00;99.90
15930;DHT22;8064;51.142;4.780;2022-10-20T00:24:29;13.00;99.90
15930;DHT22;8064;51.142;4.780;2022-10-20T00:26:55;13.00;99.90
15930;DHT22;8064;51.142;4.780;2022-10-20T00:29:21;13.00;99.90
15930;DHT22;8064;51.142;4.780;2022-10-20T00:31:47;13.00;99.90
15930;DHT22;8064;51.142;4.780;2022-10-20T00:34:13;13.00;99.90
15930;DHT22;8064;51.142;4.780;2022-10-20T00:36:39;13.00;99.90
15930;DHT22;8064;51.142;4.780;2022-10-20T00:39:05;13.00;99.90
15930;DHT22;8064;51.142;4.780;2022-10-20T00:41:31;13.00;99.90
15930;DHT22;8064;51.142;4.780;2022-10-20T00:43:58;13.00;99.90
15930;DHT22;8064;51.142;4.780;2022-10-20T00:46:39;13.00;99.90
15930;DHT22;8064;51.142;4.780;2022-10-20T00:51:39;13.00;99.90
15930;DHT22;8064;51.142;4.780;2022-10-20T00:54:08;12.90;99.90
15930;DHT22;8064;51.142;4.780;2022-10-20T00:56:37;12.90;99.90
15930;DHT22;8064;51.142;4.780;2022-10-20T00:59:03;12.90;99.90
15930;DHT22;8064;51.142;4.780;2022-10-20T01:01:31;12.90;99.90
15930;DHT22;8064;51.142;4.780;2022-10-20T01:03:57;12.90;99.90
15930;DHT22;8064;51.142;4.780;2022-10-20T01:06:23;12.90;99.90
15930;DHT22;8064;51.142;4.780;2022-10-20T01:08:51;12.90;99.90
15930;DHT22;8064;51.142;4.780;2022-10-20T01:11:48;12.80;99.90
15930;DHT22;8064;51.142;4.780;2022-10-20T01:17:16;12.90;99.90
15930;DHT22;8064;51.142;4.780;2022-10-20T01:30:39;12.80;99.90
15930;DHT22;8064;51.142;4.780;2022-10-20T01:36:19;12.80;99.90
15930;DHT22;8064;51.142;4.780;2022-10-20T01:38:57;12.80;99.90
15930;DHT22;8064;51.142;4.780;2022-10-20T01:44:00;12.80;99.90
15930;DHT22;8064;51.142;4.780;2022-10-20T01:46:28;12.80;99.90
15930;DHT22;8064;51.142;4.780;2022-10-20T01:48:54;12.80;99.90
15930;DHT22;8064;51.142;4.780;2022-10-20T01:51:20;12.70;99.90
15930;DHT22;8064;51.142;4.780;2022-10-20T01:53:46;12.70;99.90
15930;DHT22;8064;51.142;4.780;2022-10-20T01:56:16;12.70;99.90
15930;DHT22;8064;51.142;4.780;2022-10-20T02:07:22;12.80;99.90
15930;DHT22;8064;51.142;4.780;2022-10-20T02:09:53;12.80;99.90
15930;DHT22;8064;51.142;4.780;2022-10-20T02:12:26;12.80;99.90
15930;DHT22;8064;51.142;4.780;2022-10-20T02:14:53;12.80;99.90
15930;DHT22;8064;51.142;4.780;2022-10-20T02:17:20;12.80;99.90
15930;DHT22;8064;51.142;4.780;2022-10-20T02:19:48;12.80;99.90
15930;DHT22;8064;51.142;4.780;2022-10-20T02:22:15;12.80;99.90
15930;DHT22;8064;51.142;4.780;2022-10-20T02:24:43;12.80;99.90
15930;DHT22;8064;51.142;4.780;2022-10-20T02:27:36;12.80;99.90
15930;DHT22;8064;51.142;4.780;2022-10-20T02:30:08;12.80;99.90
15930;DHT22;8064;51.142;4.780;2022-10-20T02:32:36;12.80;99.90
15930;DHT22;8064;51.142;4.780;2022-10-20T02:35:05;12.80;99.90
15930;DHT22;8064;51.142;4.780;2022-10-20T02:37:31;12.80;99.90
15930;DHT22;8064;51.142;4.780;2022-10-20T02:39:57;12.80;99.90
15930;DHT22;8064;51.142;4.780;2022-10-20T02:42:23;12.80;99.90
15930;DHT22;8064;51.142;4.780;2022-10-20T02:44:48;12.80;99.90
15930;DHT22;8064;51.142;4.780;2022-10-20T02:47:14;12.80;99.90
15930;DHT22;8064;51.142;4.780;2022-10-20T02:49:41;12.80;99.90
15930;DHT22;8064;51.142;4.780;2022-10-20T02:52:06;12.80;99.90
15930;DHT22;8064;51.142;4.780;2022-10-20T02:54:32;12.80;99.90
15930;DHT22;8064;51.142;4.780;2022-10-20T02:56:58;12.80;99.90
15930;DHT22;8064;51.142;4.780;2022-10-20T02:59:24;12.80;99.90
15930;DHT22;8064;51.142;4.780;2022-10-20T03:01:49;12.90;99.90
15930;DHT22;8064;51.142;4.780;2022-10-20T03:04:16;12.90;99.90
15930;DHT22;8064;51.142;4.780;2022-10-20T03:06:42;12.90;99.90
15930;DHT22;8064;51.142;4.780;2022-10-20T03:09:08;12.90;99.90
15930;DHT22;8064;51.142;4.780;2022-10-20T03:11:34;12.90;99.90
15930;DHT22;8064;51.142;4.780;2022-10-20T03:14:00;12.90;99.90
15930;DHT22;8064;51.142;4.780;2022-10-20T03:16:26;13.00;99.90
15930;DHT22;8064;51.142;4.780;2022-10-20T03:18:51;13.00;99.90
15930;DHT22;8064;51.142;4.780;2022-10-20T03:21:17;13.00;99.90
15930;DHT22;8064;51.142;4.780;2022-10-20T03:23:43;13.00;99.90
15930;DHT22;8064;51.142;4.780;2022-10-20T03:26:10;13.00;99.90
15930;DHT22;8064;51.142;4.780;2022-10-20T03:28:37;13.00;99.90
15930;DHT22;8064;51.142;4.780;2022-10-20T03:31:03;13.00;99.90
15930;DHT22;8064;51.142;4.780;2022-10-20T03:33:29;13.00;99.90
15930;DHT22;8064;51.142;4.780;2022-10-20T03:35:54;12.90;99.90
15930;DHT22;8064;51.142;4.780;2022-10-20T03:38:20;13.00;99.90
15930;DHT22;8064;51.142;4.780;2022-10-20T03:40:46;12.90;99.90
15930;DHT22;8064;51.142;4.780;2022-10-20T03:43:12;12.90;99.90
15930;DHT22;8064;51.142;4.780;2022-10-20T03:45:40;12.90;99.90
15930;DHT22;8064;51.142;4.780;2022-10-20T03:48:06;12.90;99.90
15930;DHT22;8064;51.142;4.780;2022-10-20T03:50:32;12.90;99.90
15930;DHT22;8064;51.142;4.780;2022-10-20T03:52:57;12.90;99.90
15930;DHT22;8064;51.142;4.780;2022-10-20T03:55:23;12.90;99.90
15930;DHT22;8064;51.142;4.780;2022-10-20T03:57:49;12.90;99.90
15930;DHT22;8064;51.142;4.780;2022-10-20T04:00:14;12.90;99.90
15930;DHT22;8064;51.142;4.780;2022-10-20T04:02:43;12.90;99.90
15930;DHT22;8064;51.142;4.780;2022-10-20T04:05:14;12.90;99.90
15930;DHT22;8064;51.142;4.780;2022-10-20T04:07:40;12.90;99.90
15930;DHT22;8064;51.142;4.780;2022-10-20T04:10:06;12.90;99.90
15930;DHT22;8064;51.142;4.780;2022-10-20T04:12:32;12.90;99.90
15930;DHT22;8064;51.142;4.780;2022-10-20T04:14:58;12.90;99.90
15930;DHT22;8064;51.142;4.780;2022-10-20T04:17:23;12.90;99.90
15930;DHT22;8064;51.142;4.780;2022-10-20T04:19:49;12.90;99.90
15930;DHT22;8064;51.142;4.780;2022-10-20T04:22:15;12.90;99.90
15930;DHT22;8064;51.142;4.780;2022-10-20T04:24:41;12.90;99.90
15930;DHT22;8064;51.142;4.780;2022-10-20T04:27:06;12.80;99.90
15930;DHT22;8064;51.142;4.780;2022-10-20T04:29:32;12.80;99.90
15930;DHT22;8064;51.142;4.780;2022-10-20T04:31:58;12.80;99.90
15930;DHT22;8064;51.142;4.780;2022-10-20T04:34:24;12.80;99.90
15930;DHT22;8064;51.142;4.780;2022-10-20T04:36:50;12.80;99.90
15930;DHT22;8064;51.142;4.780;2022-10-20T04:39:16;12.80;99.90
15930;DHT22;8064;51.142;4.780;2022-10-20T04:41:42;12.80;99.90
15930;DHT22;8064;51.142;4.780;2022-10-20T04:44:08;12.80;99.90
15930;DHT22;8064;51.142;4.780;2022-10-20T04:46:33;12.80;99.90
15930;DHT22;8064;51.142;4.780;2022-10-20T04:48:59;12.70;99.90
15930;DHT22;8064;51.142;4.780;2022-10-20T04:51:25;12.70;99.90
15930;DHT22;8064;51.142;4.780;2022-10-20T04:53:51;12.70;99.90
15930;DHT22;8064;51.142;4.780;2022-10-20T04:56:18;12.60;99.90
15930;DHT22;8064;51.142;4.780;2022-10-20T04:58:49;12.60;99.90
15930;DHT22;8064;51.142;4.780;2022-10-20T05:01:15;12.60;99.90
15930;DHT22;8064;51.142;4.780;2022-10-20T05:03:41;12.60;99.90
15930;DHT22;8064;51.142;4.780;2022-10-20T05:06:19;12.60;99.90
15930;DHT22;8064;51.142;4.780;2022-10-20T05:08:47;12.60;99.90
15930;DHT22;8064;51.142;4.780;2022-10-20T05:11:15;12.50;99.90
15930;DHT22;8064;51.142;4.780;2022-10-20T05:13:41;12.50;99.90
15930;DHT22;8064;51.142;4.780;2022-10-20T05:16:08;12.50;99.90
15930;DHT22;8064;51.142;4.780;2022-10-20T05:18:34;12.50;99.90
15930;DHT22;8064;51.142;4.780;2022-10-20T05:21:15;12.50;99.90
15930;DHT22;8064;51.142;4.780;2022-10-20T05:23:42;12.50;99.90
15930;DHT22;8064;51.142;4.780;2022-10-20T05:26:12;12.50;99.90
15930;DHT22;8064;51.142;4.780;2022-10-20T05:28:38;12.40;99.90
15930;DHT22;8064;51.142;4.780;2022-10-20T05:31:07;12.40;99.90
15930;DHT22;8064;51.142;4.780;2022-10-20T05:33:34;12.40;99.90
15930;DHT22;8064;51.142;4.780;2022-10-20T05:36:05;12.50;99.90
15930;DHT22;8064;51.142;4.780;2022-10-20T05:38:30;12.50;99.90
15930;DHT22;8064;51.142;4.780;2022-10-20T05:41:05;12.50;99.90
15930;DHT22;8064;51.142;4.780;2022-10-20T05:43:31;12.50;99.90
15930;DHT22;8064;51.142;4.780;2022-10-20T05:45:57;12.50;99.90
15930;DHT22;8064;51.142;4.780;2022-10-20T05:48:22;12.50;99.90
15930;DHT22;8064;51.142;4.780;2022-10-20T05:50:48;12.50;99.90
15930;DHT22;8064;51.142;4.780;2022-10-20T05:53:14;12.50;99.90
15930;DHT22;8064;51.142;4.780;2022-10-20T05:55:39;12.50;99.90
15930;DHT22;8064;51.142;4.780;2022-10-20T05:58:05;12.50;99.90
15930;DHT22;8064;51.142;4.780;2022-10-20T06:00:31;12.60;99.90
15930;DHT22;8064;51.142;4.780;2022-10-20T06:03:06;12.60;99.90
15930;DHT22;8064;51.142;4.780;2022-10-20T06:05:32;12.60;99.90
15930;DHT22;8064;51.142;4.780;2022-10-20T06:07:58;12.60;99.90
15930;DHT22;8064;51.142;4.780;2022-10-20T06:10:23;12.60;99.90
15930;DHT22;8064;51.142;4.780;2022-10-20T06:12:49;12.70;99.90
15930;DHT22;8064;51.142;4.780;2022-10-20T06:15:15;12.70;99.90
15930;DHT22;8064;51.142;4.780;2022-10-20T06:17:41;12.70;99.90
15930;DHT22;8064;51.142;4.780;2022-10-20T06:20:06;12.70;99.90
15930;DHT22;8064;51.142;4.780;2022-10-20T06:22:32;12.70;99.90
15930;DHT22;8064;51.142;4.780;2022-10-20T06:24:58;12.70;99.90
15930;DHT22;8064;51.142;4.780;2022-10-20T06:27:24;12.80;99.90
15930;DHT22;8064;51.142;4.780;2022-10-20T06:29:49;12.80;99.90
15930;DHT22;8064;51.142;4.780;2022-10-20T06:32:15;12.80;99.90
15930;DHT22;8064;51.142;4.780;2022-10-20T06:34:42;12.80;99.90
15930;DHT22;8064;51.142;4.780;2022-10-20T06:37:08;12.80;99.90
15930;DHT22;8064;51.142;4.780;2022-10-20T06:39:34;12.80;99.90
15930;DHT22;8064;51.142;4.780;2022-10-20T06:42:00;12.90;99.90
15930;DHT22;8064;51.142;4.780;2022-10-20T06:44:28;12.90;99.90
15930;DHT22;8064;51.142;4.780;2022-10-20T06:46:53;12.90;99.90
15930;DHT22;8064;51.142;4.780;2022-10-20T06:49:22;13.00;99.90
15930;DHT22;8064;51.142;4.780;2022-10-20T06:51:49;13.00;99.90
15930;DHT22;8064;51.142;4.780;2022-10-20T06:54:18;13.00;99.90
15930;DHT22;8064;51.142;4.780;2022-10-20T06:56:45;13.10;99.90
15930;DHT22;8064;51.142;4.780;2022-10-20T06:59:12;13.10;99.90
15930;DHT22;8064;51.142;4.780;2022-10-20T07:01:38;13.10;99.90
15930;DHT22;8064;51.142;4.780;2022-10-20T07:04:06;13.10;99.90
15930;DHT22;8064;51.142;4.780;2022-10-20T07:06:37;13.20;99.90
15930;DHT22;8064;51.142;4.780;2022-10-20T07:09:04;13.20;99.90
15930;DHT22;8064;51.142;4.780;2022-10-20T07:11:33;13.20;99.90
15930;DHT22;8064;51.142;4.780;2022-10-20T07:14:00;13.30;99.90
15930;DHT22;8064;51.142;4.780;2022-10-20T07:16:27;13.30;99.90
15930;DHT22;8064;51.142;4.780;2022-10-20T07:18:53;13.30;99.90
15930;DHT22;8064;51.142;4.780;2022-10-20T07:21:22;13.30;99.90
15930;DHT22;8064;51.142;4.780;2022-10-20T07:23:49;13.40;99.90
15930;DHT22;8064;51.142;4.780;2022-10-20T07:26:27;13.40;99.90
15930;DHT22;8064;51.142;4.780;2022-10-20T07:28:55;13.40;99.90
15930;DHT22;8064;51.142;4.780;2022-10-20T07:31:23;13.50;99.90
15930;DHT22;8064;51.142;4.780;2022-10-20T07:33:49;13.50;99.90
15930;DHT22;8064;51.142;4.780;2022-10-20T07:36:21;13.50;99.90
15930;DHT22;8064;51.142;4.780;2022-10-20T07:38:49;13.60;99.90
15930;DHT22;8064;51.142;4.780;2022-10-20T07:41:15;13.60;99.90
15930;DHT22;8064;51.142;4.780;2022-10-20T07:43:42;13.60;99.90
15930;DHT22;8064;51.142;4.780;2022-10-20T07:46:10;13.60;99.90
15930;DHT22;8064;51.142;4.780;2022-10-20T07:48:36;13.70;99.90
15930;DHT22;8064;51.142;4.780;2022-10-20T07:51:32;13.70;99.90
15930;DHT22;8064;51.142;4.780;2022-10-20T07:54:04;13.80;99.90
15930;DHT22;8064;51.142;4.780;2022-10-20T07:56:37;13.80;99.90
15930;DHT22;8064;51.142;4.780;2022-10-20T07:59:03;13.80;99.90
15930;DHT22;8064;51.142;4.780;2022-10-20T08:01:29;13.80;99.90
15930;DHT22;8064;51.142;4.780;2022-10-20T08:03:55;13.80;99.90
15930;DHT22;8064;51.142;4.780;2022-10-20T08:06:21;13.90;99.90
15930;DHT22;8064;51.142;4.780;2022-10-20T08:08:47;13.90;99.90
15930;DHT22;8064;51.142;4.780;2022-10-20T08:11:14;13.90;99.90
15930;DHT22;8064;51.142;4.780;2022-10-20T08:13:39;14.00;99.90
15930;DHT22;8064;51.142;4.780;2022-10-20T08:16:06;14.00;99.90
15930;DHT22;8064;51.142;4.780;2022-10-20T08:18:32;14.10;99.90
15930;DHT22;8064;51.142;4.780;2022-10-20T08:21:18;14.20;99.90
15930;DHT22;8064;51.142;4.780;2022-10-20T08:23:46;14.20;99.90
15930;DHT22;8064;51.142;4.780;2022-10-20T08:26:19;14.30;99.90
15930;DHT22;8064;51.142;4.780;2022-10-20T08:28:46;14.40;99.90
15930;DHT22;8064;51.142;4.780;2022-10-20T08:31:12;14.40;99.90
15930;DHT22;8064;51.142;4.780;2022-10-20T08:33:37;14.50;99.90
15930;DHT22;8064;51.142;4.780;2022-10-20T08:36:08;14.60;99.90
15930;DHT22;8064;51.142;4.780;2022-10-20T08:38:35;14.80;99.90
15930;DHT22;8064;51.142;4.780;2022-10-20T08:41:01;14.90;99.90
15930;DHT22;8064;51.142;4.780;2022-10-20T08:43:29;15.00;99.90
15930;DHT22;8064;51.142;4.780;2022-10-20T08:45:56;15.00;99.90
15930;DHT22;8064;51.142;4.780;2022-10-20T08:48:25;15.10;99.90
15930;DHT22;8064;51.142;4.780;2022-10-20T08:50:54;15.20;99.90
15930;DHT22;8064;51.142;4.780;2022-10-20T08:53:22;15.20;99.90
15930;DHT22;8064;51.142;4.780;2022-10-20T08:55:49;15.30;99.90
15930;DHT22;8064;51.142;4.780;2022-10-20T08:58:18;15.30;99.90
15930;DHT22;8064;51.142;4.780;2022-10-20T09:00:45;15.40;99.90
15930;DHT22;8064;51.142;4.780;2022-10-20T09:03:22;15.40;99.90
15930;DHT22;8064;51.142;4.780;2022-10-20T09:06:02;15.40;99.90
15930;DHT22;8064;51.142;4.780;2022-10-20T09:08:33;15.40;99.90
15930;DHT22;8064;51.142;4.780;2022-10-20T09:11:00;15.40;99.90
15930;DHT22;8064;51.142;4.780;2022-10-20T09:13:31;15.40;99.90
15930;DHT22;8064;51.142;4.780;2022-10-20T09:16:04;15.40;99.90
15930;DHT22;8064;51.142;4.780;2022-10-20T09:18:32;15.40;99.90
15930;DHT22;8064;51.142;4.780;2022-10-20T09:21:04;15.40;99.90
15930;DHT22;8064;51.142;4.780;2022-10-20T09:23:40;15.40;99.90
15930;DHT22;8064;51.142;4.780;2022-10-20T09:26:42;15.50;99.90
15930;DHT22;8064;51.142;4.780;2022-10-20T09:29:10;15.40;99.90
15930;DHT22;8064;51.142;4.780;2022-10-20T09:31:45;15.40;99.90
15930;DHT22;8064;51.142;4.780;2022-10-20T09:34:26;15.40;99.90
15930;DHT22;8064;51.142;4.780;2022-10-20T09:42:19;15.30;99.90
15930;DHT22;8064;51.142;4.780;2022-10-20T09:44:51;15.30;99.90
15930;DHT22;8064;51.142;4.780;2022-10-20T09:47:18;15.30;99.90
15930;DHT22;8064;51.142;4.780;2022-10-20T09:49:46;15.30;99.90
15930;DHT22;8064;51.142;4.780;2022-10-20T09:52:22;15.20;99.90
15930;DHT22;8064;51.142;4.780;2022-10-20T09:54:50;15.20;99.90
15930;DHT22;8064;51.142;4.780;2022-10-20T09:57:21;15.20;99.90
15930;DHT22;8064;51.142;4.780;2022-10-20T09:59:49;15.20;99.90
15930;DHT22;8064;51.142;4.780;2022-10-20T10:04:44;15.20;99.90
15930;DHT22;8064;51.142;4.780;2022-10-20T10:10:03;15.20;99.90
15930;DHT22;8064;51.142;4.780;2022-10-20T10:12:31;15.20;99.90
15930;DHT22;8064;51.142;4.780;2022-10-20T10:14:58;15.20;99.90
15930;DHT22;8064;51.142;4.780;2022-10-20T10:17:36;15.20;99.90
15930;DHT22;8064;51.142;4.780;2022-10-20T10:22:38;15.20;99.90
15930;DHT22;8064;51.142;4.780;2022-10-20T10:25:05;15.20;99.90
15930;DHT22;8064;51.142;4.780;2022-10-20T10:27:35;15.20;99.90
15930;DHT22;8064;51.142;4.780;2022-10-20T10:30:31;15.20;99.90
15930;DHT22;8064;51.142;4.780;2022-10-20T10:32:56;15.20;99.90
15930;DHT22;8064;51.142;4.780;2022-10-20T10:35:35;15.30;99.90
15930;DHT22;8064;51.142;4.780;2022-10-20T10:38:01;15.40;99.90
15930;DHT22;8064;51.142;4.780;2022-10-20T10:51:42;15.70;99.90
15930;DHT22;8064;51.142;4.780;2022-10-20T10:56:53;16.10;99.90
15930;DHT22;8064;51.142;4.780;2022-10-20T10:59:28;16.20;99.90
15930;DHT22;8064;51.142;4.780;2022-10-20T11:12:52;16.30;99.90
15930;DHT22;8064;51.142;4.780;2022-10-20T11:15:50;16.40;99.90
15930;DHT22;8064;51.142;4.780;2022-10-20T11:18:43;16.40;99.90
15930;DHT22;8064;51.142;4.780;2022-10-20T11:26:43;16.40;99.90
15930;DHT22;8064;51.142;4.780;2022-10-20T11:29:17;16.50;99.90
15930;DHT22;8064;51.142;4.780;2022-10-20T11:32:35;16.60;99.90
15930;DHT22;8064;51.142;4.780;2022-10-20T11:37:44;17.10;99.90
15930;DHT22;8064;51.142;4.780;2022-10-20T11:40:21;17.40;99.90
15930;DHT22;8064;51.142;4.780;2022-10-20T11:45:30;17.70;99.90
15930;DHT22;8064;51.142;4.780;2022-10-20T11:50:55;17.90;99.90
15930;DHT22;8064;51.142;4.780;2022-10-20T11:53:38;18.20;99.90
15930;DHT22;8064;51.142;4.780;2022-10-20T11:56:18;18.30;99.90
15930;DHT22;8064;51.142;4.780;2022-10-20T12:01:35;18.80;99.90
15930;DHT22;8064;51.142;4.780;2022-10-20T12:04:41;19.00;99.90
15930;DHT22;8064;51.142;4.780;2022-10-20T12:07:28;19.10;99.90
15930;DHT22;8064;51.142;4.780;2022-10-20T12:15:25;19.50;99.90
15930;DHT22;8064;51.142;4.780;2022-10-20T12:17:53;19.70;99.90
15930;DHT22;8064;51.142;4.780;2022-10-20T12:22:47;19.80;99.90
15930;DHT22;8064;51.142;4.780;2022-10-20T12:25:21;19.90;99.90
15930;DHT22;8064;51.142;4.780;2022-10-20T12:41:28;20.10;99.90
15930;DHT22;8064;51.142;4.780;2022-10-20T12:44:06;20.20;99.90
15930;DHT22;8064;51.142;4.780;2022-10-20T12:46:41;20.20;99.90
15930;DHT22;8064;51.142;4.780;2022-10-20T12:49:09;20.20;99.90
15930;DHT22;8064;51.142;4.780;2022-10-20T12:51:50;20.20;99.90
15930;DHT22;8064;51.142;4.780;2022-10-20T12:54:38;20.20;99.90
15930;DHT22;8064;51.142;4.780;2022-10-20T12:59:59;20.20;99.90
15930;DHT22;8064;51.142;4.780;2022-10-20T13:10:35;20.40;99.90
15930;DHT22;8064;51.142;4.780;2022-10-20T13:18:02;20.30;99.90
15930;DHT22;8064;51.142;4.780;2022-10-20T13:23:18;20.30;99.90
15930;DHT22;8064;51.142;4.780;2022-10-20T13:25:51;20.30;99.90
15930;DHT22;8064;51.142;4.780;2022-10-20T13:28:24;20.30;99.90
15930;DHT22;8064;51.142;4.780;2022-10-20T13:36:14;20.40;99.90
15930;DHT22;8064;51.142;4.780;2022-10-20T13:41:40;20.50;99.90
15930;DHT22;8064;51.142;4.780;2022-10-20T13:44:33;20.50;99.90
15930;DHT22;8064;51.142;4.780;2022-10-20T13:50:04;20.50;99.90
15930;DHT22;8064;51.142;4.780;2022-10-20T13:52:38;20.40;99.90
15930;DHT22;8064;51.142;4.780;2022-10-20T13:55:06;20.40;99.90
15930;DHT22;8064;51.142;4.780;2022-10-20T13:57:34;20.30;99.90
15930;DHT22;8064;51.142;4.780;2022-10-20T14:00:15;20.30;99.90
15930;DHT22;8064;51.142;4.780;2022-10-20T14:03:01;20.40;99.90
15930;DHT22;8064;51.142;4.780;2022-10-20T14:05:29;20.40;99.90
15930;DHT22;8064;51.142;4.780;2022-10-20T14:07:59;20.40;99.90
15930;DHT22;8064;51.142;4.780;2022-10-20T14:10:31;20.50;99.90
15930;DHT22;8064;51.142;4.780;2022-10-20T14:13:01;20.50;99.90
15930;DHT22;8064;51.142;4.780;2022-10-20T14:15:35;20.50;99.90
15930;DHT22;8064;51.142;4.780;2022-10-20T14:18:04;20.50;99.90
15930;DHT22;8064;51.142;4.780;2022-10-20T14:20:32;20.50;99.90
15930;DHT22;8064;51.142;4.780;2022-10-20T14:22:59;20.50;99.90
15930;DHT22;8064;51.142;4.780;2022-10-20T14:25:27;20.60;99.90
15930;DHT22;8064;51.142;4.780;2022-10-20T14:27:54;20.60;99.90
15930;DHT22;8064;51.142;4.780;2022-10-20T14:30:21;20.60;99.90
15930;DHT22;8064;51.142;4.780;2022-10-20T14:32:49;20.60;99.90
15930;DHT22;8064;51.142;4.780;2022-10-20T14:37:55;20.60;99.90
15930;DHT22;8064;51.142;4.780;2022-10-20T14:40:24;20.60;99.90
15930;DHT22;8064;51.142;4.780;2022-10-20T14:42:51;20.60;99.90
15930;DHT22;8064;51.142;4.780;2022-10-20T14:45:24;20.60;99.90
15930;DHT22;8064;51.142;4.780;2022-10-20T14:47:51;20.60;99.90
15930;DHT22;8064;51.142;4.780;2022-10-20T14:52:55;20.70;99.90
15930;DHT22;8064;51.142;4.780;2022-10-20T14:55:35;20.70;99.90
15930;DHT22;8064;51.142;4.780;2022-10-20T14:58:02;20.70;99.90
15930;DHT22;8064;51.142;4.780;2022-10-20T15:00:31;20.70;99.90
15930;DHT22;8064;51.142;4.780;2022-10-20T15:02:58;20.70;99.90
15930;DHT22;8064;51.142;4.780;2022-10-20T15:05:32;20.70;99.90
15930;DHT22;8064;51.142;4.780;2022-10-20T15:08:17;20.70;99.90
15930;DHT22;8064;51.142;4.780;2022-10-20T15:10:45;20.70;99.90
15930;DHT22;8064;51.142;4.780;2022-10-20T15:13:30;20.70;99.90
15930;DHT22;8064;51.142;4.780;2022-10-20T15:15:58;20.80;99.90
15930;DHT22;8064;51.142;4.780;2022-10-20T15:18:26;20.80;99.90
15930;DHT22;8064;51.142;4.780;2022-10-20T15:20:54;20.90;99.90
15930;DHT22;8064;51.142;4.780;2022-10-20T15:23:26;20.90;99.90
15930;DHT22;8064;51.142;4.780;2022-10-20T15:26:03;20.90;99.90
15930;DHT22;8064;51.142;4.780;2022-10-20T15:31:23;20.90;99.90
15930;DHT22;8064;51.142;4.780;2022-10-20T15:33:50;20.90;99.90
15930;DHT22;8064;51.142;4.780;2022-10-20T15:36:18;20.80;99.90
15930;DHT22;8064;51.142;4.780;2022-10-20T15:38:46;20.80;99.90
15930;DHT22;8064;51.142;4.780;2022-10-20T15:41:23;20.70;99.90
15930;DHT22;8064;51.142;4.780;2022-10-20T15:43:51;20.70;99.90
15930;DHT22;8064;51.142;4.780;2022-10-20T15:46:18;20.60;99.90
15930;DHT22;8064;51.142;4.780;2022-10-20T15:48:44;20.60;99.90
15930;DHT22;8064;51.142;4.780;2022-10-20T15:51:18;20.60;99.90
15930;DHT22;8064;51.142;4.780;2022-10-20T15:53:45;20.50;99.90
15930;DHT22;8064;51.142;4.780;2022-10-20T15:56:15;20.50;99.90
15930;DHT22;8064;51.142;4.780;2022-10-20T15:58:42;20.40;99.90
15930;DHT22;8064;51.142;4.780;2022-10-20T16:01:11;20.40;99.90
15930;DHT22;8064;51.142;4.780;2022-10-20T16:03:37;20.40;99.90
15930;DHT22;8064;51.142;4.780;2022-10-20T16:06:11;20.30;99.90
15930;DHT22;8064;51.142;4.780;2022-10-20T16:08:38;20.20;99.90
15930;DHT22;8064;51.142;4.780;2022-10-20T16:11:04;20.20;99.90
15930;DHT22;8064;51.142;4.780;2022-10-20T16:13:33;20.10;99.90
15930;DHT22;8064;51.142;4.780;2022-10-20T16:16:00;20.00;99.90
15930;DHT22;8064;51.142;4.780;2022-10-20T16:18:26;20.00;99.90
15930;DHT22;8064;51.142;4.780;2022-10-20T16:20:52;19.90;99.90
15930;DHT22;8064;51.142;4.780;2022-10-20T16:23:18;19.90;99.90
15930;DHT22;8064;51.142;4.780;2022-10-20T16:25:44;19.80;99.90
15930;DHT22;8064;51.142;4.780;2022-10-20T16:28:09;19.80;99.90
15930;DHT22;8064;51.142;4.780;2022-10-20T16:30:35;19.70;99.90
15930;DHT22;8064;51.142;4.780;2022-10-20T16:33:01;19.70;99.90
15930;DHT22;8064;51.142;4.780;2022-10-20T16:35:27;19.60;99.90
15930;DHT22;8064;51.142;4.780;2022-10-20T16:37:53;19.50;99.90
15930;DHT22;8064;51.142;4.780;2022-10-20T16:40:18;19.50;99.90
15930;DHT22;8064;51.142;4.780;2022-10-20T16:42:44;19.40;99.90
15930;DHT22;8064;51.142;4.780;2022-10-20T16:45:10;19.30;99.90
15930;DHT22;8064;51.142;4.780;2022-10-20T16:47:36;19.30;99.90
15930;DHT22;8064;51.142;4.780;2022-10-20T16:50:02;19.20;99.90
15930;DHT22;8064;51.142;4.780;2022-10-20T16:52:28;19.10;99.90
15930;DHT22;8064;51.142;4.780;2022-10-20T16:54:54;19.10;99.90
15930;DHT22;8064;51.142;4.780;2022-10-20T16:57:20;19.00;99.90
15930;DHT22;8064;51.142;4.780;2022-10-20T16:59:45;19.00;99.90
15930;DHT22;8064;51.142;4.780;2022-10-20T17:02:15;18.90;99.90
15930;DHT22;8064;51.142;4.780;2022-10-20T17:04:42;18.90;99.90
15930;DHT22;8064;51.142;4.780;2022-10-20T17:07:09;18.80;99.90
15930;DHT22;8064;51.142;4.780;2022-10-20T17:09:35;18.80;99.90
15930;DHT22;8064;51.142;4.780;2022-10-20T17:12:01;18.70;99.90
15930;DHT22;8064;51.142;4.780;2022-10-20T17:14:26;18.70;99.90
15930;DHT22;8064;51.142;4.780;2022-10-20T17:16:52;18.60;99.90
15930;DHT22;8064;51.142;4.780;2022-10-20T17:19:18;18.60;99.90
15930;DHT22;8064;51.142;4.780;2022-10-20T17:21:43;18.60;99.90
15930;DHT22;8064;51.142;4.780;2022-10-20T17:24:11;18.50;99.90
15930;DHT22;8064;51.142;4.780;2022-10-20T17:26:38;18.50;99.90
15930;DHT22;8064;51.142;4.780;2022-10-20T17:29:04;18.40;99.90
15930;DHT22;8064;51.142;4.780;2022-10-20T17:31:29;18.40;99.90
15930;DHT22;8064;51.142;4.780;2022-10-20T17:33:59;18.30;99.90
15930;DHT22;8064;51.142;4.780;2022-10-20T17:36:25;18.30;99.90
15930;DHT22;8064;51.142;4.780;2022-10-20T17:39:01;18.20;99.90
15930;DHT22;8064;51.142;4.780;2022-10-20T17:41:27;18.20;99.90
15930;DHT22;8064;51.142;4.780;2022-10-20T17:43:53;18.20;99.90
15930;DHT22;8064;51.142;4.780;2022-10-20T17:46:19;18.20;99.90
15930;DHT22;8064;51.142;4.780;2022-10-20T17:48:46;18.10;99.90
15930;DHT22;8064;51.142;4.780;2022-10-20T17:51:17;18.10;99.90
15930;DHT22;8064;51.142;4.780;2022-10-20T17:53:48;18.10;99.90
15930;DHT22;8064;51.142;4.780;2022-10-20T17:56:28;18.00;99.90
15930;DHT22;8064;51.142;4.780;2022-10-20T17:58:58;18.00;99.90
15930;DHT22;8064;51.142;4.780;2022-10-20T18:01:28;18.00;99.90
15930;DHT22;8064;51.142;4.780;2022-10-20T18:04:03;18.00;99.90
15930;DHT22;8064;51.142;4.780;2022-10-20T18:06:30;18.00;99.90
15930;DHT22;8064;51.142;4.780;2022-10-20T18:08:58;18.00;99.90
15930;DHT22;8064;51.142;4.780;2022-10-20T18:11:27;18.00;99.90
15930;DHT22;8064;51.142;4.780;2022-10-20T18:13:57;18.00;99.90
15930;DHT22;8064;51.142;4.780;2022-10-20T18:16:24;18.10;99.90
15930;DHT22;8064;51.142;4.780;2022-10-20T18:18:50;18.10;99.90
15930;DHT22;8064;51.142;4.780;2022-10-20T18:21:18;18.10;99.90